Terminal Aerodrome Forecast
Issued by NWS

Home | Current Version | Previous Version | Text Only | Print | Product List | Glossary On
Versions: 1 2 3 4 5 6 7 8 9 10 11 12 13 14
297
FTUS46 KSEW 191528 AAA
TAFOLM
TAF AMD
KOLM 191528Z 1915/2012 18013KT P6SM VCSH SCT035 BKN060
      TEMPO 1915/1919 18010G20KT -SHRA BKN035 OVC050
     FM192200 19010KT 5SM -SHRA BKN015 OVC025
     FM200200 20012KT 3SM SHRA BKN015 OVC025=

USA.gov is the U.S. government's official web portal to all federal, state and local government web resources and services.